sensor_id;sensor_type;location;lat;lon;timestamp;temperature;humidity
12622;DHT22;6376;48.182;-1.644;2024-03-07T00:00:11;11.40;87.70
12622;DHT22;6376;48.182;-1.644;2024-03-07T00:02:45;11.40;87.80
12622;DHT22;6376;48.182;-1.644;2024-03-07T00:05:14;11.40;87.80
12622;DHT22;6376;48.182;-1.644;2024-03-07T00:07:41;11.40;87.70
12622;DHT22;6376;48.182;-1.644;2024-03-07T00:10:07;11.40;87.80
12622;DHT22;6376;48.182;-1.644;2024-03-07T00:12:37;11.40;87.80
12622;DHT22;6376;48.182;-1.644;2024-03-07T00:15:10;11.40;87.90
12622;DHT22;6376;48.182;-1.644;2024-03-07T00:17:37;11.40;87.90
12622;DHT22;6376;48.182;-1.644;2024-03-07T00:20:04;11.40;87.90
12622;DHT22;6376;48.182;-1.644;2024-03-07T00:22:34;11.40;87.90
12622;DHT22;6376;48.182;-1.644;2024-03-07T00:24:59;11.40;87.90
12622;DHT22;6376;48.182;-1.644;2024-03-07T00:27:25;11.40;87.90
12622;DHT22;6376;48.182;-1.644;2024-03-07T00:29:51;11.40;88.00
12622;DHT22;6376;48.182;-1.644;2024-03-07T00:32:20;11.40;87.90
12622;DHT22;6376;48.182;-1.644;2024-03-07T00:34:46;11.40;88.00
12622;DHT22;6376;48.182;-1.644;2024-03-07T00:37:12;11.40;87.90
12622;DHT22;6376;48.182;-1.644;2024-03-07T00:39:38;11.40;88.00
12622;DHT22;6376;48.182;-1.644;2024-03-07T00:42:04;11.40;88.00
12622;DHT22;6376;48.182;-1.644;2024-03-07T00:44:29;11.40;88.00
12622;DHT22;6376;48.182;-1.644;2024-03-07T00:46:55;11.40;88.00
12622;DHT22;6376;48.182;-1.644;2024-03-07T00:49:22;11.30;87.70
12622;DHT22;6376;48.182;-1.644;2024-03-07T00:51:48;11.30;87.90
12622;DHT22;6376;48.182;-1.644;2024-03-07T00:54:14;11.30;88.00
12622;DHT22;6376;48.182;-1.644;2024-03-07T00:56:39;11.30;88.00
12622;DHT22;6376;48.182;-1.644;2024-03-07T00:59:05;11.30;87.90
12622;DHT22;6376;48.182;-1.644;2024-03-07T01:01:32;11.30;88.00
12622;DHT22;6376;48.182;-1.644;2024-03-07T01:04:00;11.30;88.10
12622;DHT22;6376;48.182;-1.644;2024-03-07T01:06:26;11.30;87.90
12622;DHT22;6376;48.182;-1.644;2024-03-07T01:08:51;11.30;87.90
12622;DHT22;6376;48.182;-1.644;2024-03-07T01:11:17;11.30;88.10
12622;DHT22;6376;48.182;-1.644;2024-03-07T01:13:43;11.30;88.10
12622;DHT22;6376;48.182;-1.644;2024-03-07T01:16:09;11.30;88.30
12622;DHT22;6376;48.182;-1.644;2024-03-07T01:18:35;11.30;88.20
12622;DHT22;6376;48.182;-1.644;2024-03-07T01:21:01;11.30;88.10
12622;DHT22;6376;48.182;-1.644;2024-03-07T01:23:27;11.30;88.20
12622;DHT22;6376;48.182;-1.644;2024-03-07T01:25:59;11.30;88.10
12622;DHT22;6376;48.182;-1.644;2024-03-07T01:28:26;11.20;88.00
12622;DHT22;6376;48.182;-1.644;2024-03-07T01:30:55;11.30;88.20
12622;DHT22;6376;48.182;-1.644;2024-03-07T01:33:21;11.20;88.20
12622;DHT22;6376;48.182;-1.644;2024-03-07T01:35:47;11.20;88.00
12622;DHT22;6376;48.182;-1.644;2024-03-07T01:38:14;11.20;88.20
12622;DHT22;6376;48.182;-1.644;2024-03-07T01:40:40;11.20;88.20
12622;DHT22;6376;48.182;-1.644;2024-03-07T01:43:07;11.20;88.10
12622;DHT22;6376;48.182;-1.644;2024-03-07T01:45:32;11.20;88.30
12622;DHT22;6376;48.182;-1.644;2024-03-07T01:47:59;11.20;88.20
12622;DHT22;6376;48.182;-1.644;2024-03-07T01:50:24;11.20;88.20
12622;DHT22;6376;48.182;-1.644;2024-03-07T01:52:50;11.20;88.10
12622;DHT22;6376;48.182;-1.644;2024-03-07T01:55:17;11.20;88.00
12622;DHT22;6376;48.182;-1.644;2024-03-07T01:57:43;11.20;88.10
12622;DHT22;6376;48.182;-1.644;2024-03-07T02:00:11;11.20;88.30
12622;DHT22;6376;48.182;-1.644;2024-03-07T02:02:37;11.20;88.30
12622;DHT22;6376;48.182;-1.644;2024-03-07T02:05:03;11.20;88.30
12622;DHT22;6376;48.182;-1.644;2024-03-07T02:07:29;11.10;88.30
12622;DHT22;6376;48.182;-1.644;2024-03-07T02:10:05;11.10;88.20
12622;DHT22;6376;48.182;-1.644;2024-03-07T02:12:31;11.10;88.30
12622;DHT22;6376;48.182;-1.644;2024-03-07T02:14:58;11.20;88.20
12622;DHT22;6376;48.182;-1.644;2024-03-07T02:17:24;11.10;88.20
12622;DHT22;6376;48.182;-1.644;2024-03-07T02:19:50;11.10;88.30
12622;DHT22;6376;48.182;-1.644;2024-03-07T02:22:17;11.10;88.40
12622;DHT22;6376;48.182;-1.644;2024-03-07T02:24:42;11.10;88.40
12622;DHT22;6376;48.182;-1.644;2024-03-07T02:27:08;11.10;88.30
12622;DHT22;6376;48.182;-1.644;2024-03-07T02:29:35;11.10;88.30
12622;DHT22;6376;48.182;-1.644;2024-03-07T02:32:02;11.10;88.30
12622;DHT22;6376;48.182;-1.644;2024-03-07T02:34:28;11.10;88.30
12622;DHT22;6376;48.182;-1.644;2024-03-07T02:36:54;11.10;88.30
12622;DHT22;6376;48.182;-1.644;2024-03-07T02:39:19;11.10;88.30
12622;DHT22;6376;48.182;-1.644;2024-03-07T02:41:46;11.10;88.30
12622;DHT22;6376;48.182;-1.644;2024-03-07T02:44:13;11.10;88.50
12622;DHT22;6376;48.182;-1.644;2024-03-07T02:46:39;11.10;88.30
12622;DHT22;6376;48.182;-1.644;2024-03-07T02:49:05;11.10;88.30
12622;DHT22;6376;48.182;-1.644;2024-03-07T02:51:31;11.00;88.30
12622;DHT22;6376;48.182;-1.644;2024-03-07T02:53:57;11.00;88.50
12622;DHT22;6376;48.182;-1.644;2024-03-07T02:56:23;11.00;88.50
12622;DHT22;6376;48.182;-1.644;2024-03-07T02:58:49;11.00;88.50
12622;DHT22;6376;48.182;-1.644;2024-03-07T03:01:15;11.00;88.50
12622;DHT22;6376;48.182;-1.644;2024-03-07T03:03:40;11.00;88.60
12622;DHT22;6376;48.182;-1.644;2024-03-07T03:06:08;11.00;88.60
12622;DHT22;6376;48.182;-1.644;2024-03-07T03:08:34;11.00;88.60
12622;DHT22;6376;48.182;-1.644;2024-03-07T03:11:00;11.00;88.50
12622;DHT22;6376;48.182;-1.644;2024-03-07T03:13:26;11.00;88.50
12622;DHT22;6376;48.182;-1.644;2024-03-07T03:15:53;11.00;88.40
12622;DHT22;6376;48.182;-1.644;2024-03-07T03:18:21;11.00;88.40
12622;DHT22;6376;48.182;-1.644;2024-03-07T03:20:47;11.00;88.40
12622;DHT22;6376;48.182;-1.644;2024-03-07T03:23:14;11.00;88.60
12622;DHT22;6376;48.182;-1.644;2024-03-07T03:25:40;11.00;88.50
12622;DHT22;6376;48.182;-1.644;2024-03-07T03:28:06;11.00;88.50
12622;DHT22;6376;48.182;-1.644;2024-03-07T03:30:36;11.00;88.40
12622;DHT22;6376;48.182;-1.644;2024-03-07T03:33:02;11.00;88.50
12622;DHT22;6376;48.182;-1.644;2024-03-07T03:35:28;10.90;88.30
12622;DHT22;6376;48.182;-1.644;2024-03-07T03:37:53;10.90;88.40
12622;DHT22;6376;48.182;-1.644;2024-03-07T03:40:19;10.90;88.50
12622;DHT22;6376;48.182;-1.644;2024-03-07T03:42:44;10.90;88.30
12622;DHT22;6376;48.182;-1.644;2024-03-07T03:45:10;10.90;88.60
12622;DHT22;6376;48.182;-1.644;2024-03-07T03:47:41;10.90;88.60
12622;DHT22;6376;48.182;-1.644;2024-03-07T03:50:09;10.90;88.50
12622;DHT22;6376;48.182;-1.644;2024-03-07T03:52:35;10.90;88.60
12622;DHT22;6376;48.182;-1.644;2024-03-07T03:55:01;10.90;88.60
12622;DHT22;6376;48.182;-1.644;2024-03-07T03:57:28;10.90;88.70
12622;DHT22;6376;48.182;-1.644;2024-03-07T03:59:54;10.90;88.60
12622;DHT22;6376;48.182;-1.644;2024-03-07T04:02:20;10.90;88.60
12622;DHT22;6376;48.182;-1.644;2024-03-07T04:04:47;10.90;88.60
12622;DHT22;6376;48.182;-1.644;2024-03-07T04:07:14;10.90;88.70
12622;DHT22;6376;48.182;-1.644;2024-03-07T04:09:42;10.90;88.60
12622;DHT22;6376;48.182;-1.644;2024-03-07T04:12:07;10.80;88.60
12622;DHT22;6376;48.182;-1.644;2024-03-07T04:14:39;10.80;88.60
12622;DHT22;6376;48.182;-1.644;2024-03-07T04:17:09;10.90;88.80
12622;DHT22;6376;48.182;-1.644;2024-03-07T04:19:39;10.80;88.70
12622;DHT22;6376;48.182;-1.644;2024-03-07T04:22:04;10.80;88.70
12622;DHT22;6376;48.182;-1.644;2024-03-07T04:24:36;10.80;88.70
12622;DHT22;6376;48.182;-1.644;2024-03-07T04:27:02;10.80;88.70
12622;DHT22;6376;48.182;-1.644;2024-03-07T04:29:34;10.80;88.70
12622;DHT22;6376;48.182;-1.644;2024-03-07T04:32:00;10.80;88.70
12622;DHT22;6376;48.182;-1.644;2024-03-07T04:34:30;10.80;88.70
12622;DHT22;6376;48.182;-1.644;2024-03-07T04:36:57;10.80;88.70
12622;DHT22;6376;48.182;-1.644;2024-03-07T04:39:24;10.80;88.70
12622;DHT22;6376;48.182;-1.644;2024-03-07T04:41:53;10.80;88.70
12622;DHT22;6376;48.182;-1.644;2024-03-07T04:44:20;10.80;88.70
12622;DHT22;6376;48.182;-1.644;2024-03-07T04:46:48;10.80;88.90
12622;DHT22;6376;48.182;-1.644;2024-03-07T04:49:15;10.80;88.80
12622;DHT22;6376;48.182;-1.644;2024-03-07T04:51:40;10.80;88.80
12622;DHT22;6376;48.182;-1.644;2024-03-07T04:54:06;10.80;88.80
12622;DHT22;6376;48.182;-1.644;2024-03-07T04:56:32;10.80;88.90
12622;DHT22;6376;48.182;-1.644;2024-03-07T04:58:57;10.80;88.80
12622;DHT22;6376;48.182;-1.644;2024-03-07T05:01:23;10.80;88.80
12622;DHT22;6376;48.182;-1.644;2024-03-07T05:03:50;10.80;89.00
12622;DHT22;6376;48.182;-1.644;2024-03-07T05:06:17;10.80;88.80
12622;DHT22;6376;48.182;-1.644;2024-03-07T05:08:43;10.80;88.80
12622;DHT22;6376;48.182;-1.644;2024-03-07T05:11:09;10.80;88.90
12622;DHT22;6376;48.182;-1.644;2024-03-07T05:13:35;10.80;88.80
12622;DHT22;6376;48.182;-1.644;2024-03-07T05:16:02;10.80;88.90
12622;DHT22;6376;48.182;-1.644;2024-03-07T05:18:28;10.70;89.70
12622;DHT22;6376;48.182;-1.644;2024-03-07T05:20:53;10.70;88.80
12622;DHT22;6376;48.182;-1.644;2024-03-07T05:23:20;10.70;89.20
12622;DHT22;6376;48.182;-1.644;2024-03-07T05:25:46;10.70;88.80
12622;DHT22;6376;48.182;-1.644;2024-03-07T05:28:11;10.70;89.00
12622;DHT22;6376;48.182;-1.644;2024-03-07T05:30:37;10.70;88.70
12622;DHT22;6376;48.182;-1.644;2024-03-07T05:33:03;10.70;88.80
12622;DHT22;6376;48.182;-1.644;2024-03-07T05:35:29;10.70;89.00
12622;DHT22;6376;48.182;-1.644;2024-03-07T05:37:55;10.70;88.80
12622;DHT22;6376;48.182;-1.644;2024-03-07T05:40:22;10.70;88.90
12622;DHT22;6376;48.182;-1.644;2024-03-07T05:42:48;10.70;88.70
12622;DHT22;6376;48.182;-1.644;2024-03-07T05:45:14;10.70;89.00
12622;DHT22;6376;48.182;-1.644;2024-03-07T05:47:40;10.70;89.00
12622;DHT22;6376;48.182;-1.644;2024-03-07T05:50:06;10.70;89.30
12622;DHT22;6376;48.182;-1.644;2024-03-07T05:52:36;10.70;89.00
12622;DHT22;6376;48.182;-1.644;2024-03-07T05:55:05;10.70;88.90
12622;DHT22;6376;48.182;-1.644;2024-03-07T05:57:32;10.70;89.00
12622;DHT22;6376;48.182;-1.644;2024-03-07T05:59:57;10.70;88.90
12622;DHT22;6376;48.182;-1.644;2024-03-07T06:02:23;10.70;89.00
12622;DHT22;6376;48.182;-1.644;2024-03-07T06:04:49;10.70;89.00
12622;DHT22;6376;48.182;-1.644;2024-03-07T06:07:15;10.70;88.80
12622;DHT22;6376;48.182;-1.644;2024-03-07T06:09:41;10.70;89.00
12622;DHT22;6376;48.182;-1.644;2024-03-07T06:12:06;10.70;89.10
12622;DHT22;6376;48.182;-1.644;2024-03-07T06:14:34;10.70;89.00
12622;DHT22;6376;48.182;-1.644;2024-03-07T06:16:59;10.70;88.90
12622;DHT22;6376;48.182;-1.644;2024-03-07T06:19:26;10.70;89.00
12622;DHT22;6376;48.182;-1.644;2024-03-07T06:21:52;10.60;88.90
12622;DHT22;6376;48.182;-1.644;2024-03-07T06:24:19;10.60;88.90
12622;DHT22;6376;48.182;-1.644;2024-03-07T06:26:46;10.60;89.00
12622;DHT22;6376;48.182;-1.644;2024-03-07T06:29:17;10.60;88.80
12622;DHT22;6376;48.182;-1.644;2024-03-07T06:31:44;10.70;89.00
12622;DHT22;6376;48.182;-1.644;2024-03-07T06:34:12;10.60;89.00
12622;DHT22;6376;48.182;-1.644;2024-03-07T06:36:38;10.70;89.00
12622;DHT22;6376;48.182;-1.644;2024-03-07T06:39:06;10.60;89.00
12622;DHT22;6376;48.182;-1.644;2024-03-07T06:41:34;10.60;89.00
12622;DHT22;6376;48.182;-1.644;2024-03-07T06:44:01;10.60;88.80
12622;DHT22;6376;48.182;-1.644;2024-03-07T06:46:27;10.60;89.00
12622;DHT22;6376;48.182;-1.644;2024-03-07T06:48:53;10.60;89.10
12622;DHT22;6376;48.182;-1.644;2024-03-07T06:51:19;10.60;88.90
12622;DHT22;6376;48.182;-1.644;2024-03-07T06:53:45;10.60;88.80
12622;DHT22;6376;48.182;-1.644;2024-03-07T06:56:14;10.60;88.80
12622;DHT22;6376;48.182;-1.644;2024-03-07T06:58:42;10.60;89.00
12622;DHT22;6376;48.182;-1.644;2024-03-07T07:01:08;10.60;88.90
12622;DHT22;6376;48.182;-1.644;2024-03-07T07:03:36;10.60;89.00
12622;DHT22;6376;48.182;-1.644;2024-03-07T07:06:02;10.60;89.00
12622;DHT22;6376;48.182;-1.644;2024-03-07T07:08:31;10.60;88.90
12622;DHT22;6376;48.182;-1.644;2024-03-07T07:10:58;10.60;88.80
12622;DHT22;6376;48.182;-1.644;2024-03-07T07:13:24;10.60;88.80
12622;DHT22;6376;48.182;-1.644;2024-03-07T07:15:50;10.60;89.00
12622;DHT22;6376;48.182;-1.644;2024-03-07T07:18:15;10.60;88.80
12622;DHT22;6376;48.182;-1.644;2024-03-07T07:20:41;10.60;88.60
12622;DHT22;6376;48.182;-1.644;2024-03-07T07:23:07;10.60;88.70
12622;DHT22;6376;48.182;-1.644;2024-03-07T07:25:33;10.60;88.80
12622;DHT22;6376;48.182;-1.644;2024-03-07T07:27:59;10.60;88.70
12622;DHT22;6376;48.182;-1.644;2024-03-07T07:30:25;10.60;88.60
12622;DHT22;6376;48.182;-1.644;2024-03-07T07:32:53;10.60;88.50
12622;DHT22;6376;48.182;-1.644;2024-03-07T07:35:21;10.60;88.40
12622;DHT22;6376;48.182;-1.644;2024-03-07T07:37:49;10.70;88.20
12622;DHT22;6376;48.182;-1.644;2024-03-07T07:40:18;10.70;87.90
12622;DHT22;6376;48.182;-1.644;2024-03-07T07:42:44;10.70;88.10
12622;DHT22;6376;48.182;-1.644;2024-03-07T07:45:12;10.70;88.20
12622;DHT22;6376;48.182;-1.644;2024-03-07T07:47:38;10.70;87.80
12622;DHT22;6376;48.182;-1.644;2024-03-07T07:50:07;10.70;87.80
12622;DHT22;6376;48.182;-1.644;2024-03-07T07:52:42;10.70;87.70
12622;DHT22;6376;48.182;-1.644;2024-03-07T07:55:09;10.70;88.20
12622;DHT22;6376;48.182;-1.644;2024-03-07T07:57:44;10.70;88.00
12622;DHT22;6376;48.182;-1.644;2024-03-07T08:00:14;10.70;88.30
12622;DHT22;6376;48.182;-1.644;2024-03-07T08:02:55;10.70;88.40
12622;DHT22;6376;48.182;-1.644;2024-03-07T08:05:22;10.70;88.10
12622;DHT22;6376;48.182;-1.644;2024-03-07T08:07:49;10.70;87.70
12622;DHT22;6376;48.182;-1.644;2024-03-07T08:10:17;10.70;88.10
12622;DHT22;6376;48.182;-1.644;2024-03-07T08:12:42;10.70;87.90
12622;DHT22;6376;48.182;-1.644;2024-03-07T08:15:12;10.80;87.50
12622;DHT22;6376;48.182;-1.644;2024-03-07T08:17:43;10.80;87.40
12622;DHT22;6376;48.182;-1.644;2024-03-07T08:20:13;10.80;87.50
12622;DHT22;6376;48.182;-1.644;2024-03-07T08:22:42;10.80;87.40
12622;DHT22;6376;48.182;-1.644;2024-03-07T08:25:13;10.90;87.00
12622;DHT22;6376;48.182;-1.644;2024-03-07T08:27:40;11.00;86.60
12622;DHT22;6376;48.182;-1.644;2024-03-07T08:30:08;11.10;86.10
12622;DHT22;6376;48.182;-1.644;2024-03-07T08:32:39;11.10;86.00
12622;DHT22;6376;48.182;-1.644;2024-03-07T08:35:06;11.00;86.20
12622;DHT22;6376;48.182;-1.644;2024-03-07T08:37:35;11.00;86.30
12622;DHT22;6376;48.182;-1.644;2024-03-07T08:40:02;11.00;86.30
12622;DHT22;6376;48.182;-1.644;2024-03-07T08:42:32;11.20;86.00
12622;DHT22;6376;48.182;-1.644;2024-03-07T08:45:00;11.30;85.80
12622;DHT22;6376;48.182;-1.644;2024-03-07T08:47:26;11.20;85.80
12622;DHT22;6376;48.182;-1.644;2024-03-07T08:49:53;11.20;85.70
12622;DHT22;6376;48.182;-1.644;2024-03-07T08:52:19;11.20;85.50
12622;DHT22;6376;48.182;-1.644;2024-03-07T08:54:45;11.20;85.20
12622;DHT22;6376;48.182;-1.644;2024-03-07T08:57:11;11.30;85.70
12622;DHT22;6376;48.182;-1.644;2024-03-07T08:59:36;11.30;85.30
12622;DHT22;6376;48.182;-1.644;2024-03-07T09:02:02;11.30;85.20
12622;DHT22;6376;48.182;-1.644;2024-03-07T09:04:28;11.30;85.40
12622;DHT22;6376;48.182;-1.644;2024-03-07T09:06:56;11.30;85.40
12622;DHT22;6376;48.182;-1.644;2024-03-07T09:09:22;11.40;85.40
12622;DHT22;6376;48.182;-1.644;2024-03-07T09:11:48;11.40;85.20
12622;DHT22;6376;48.182;-1.644;2024-03-07T09:14:14;11.40;85.30
12622;DHT22;6376;48.182;-1.644;2024-03-07T09:16:39;11.50;85.10
12622;DHT22;6376;48.182;-1.644;2024-03-07T09:19:05;11.50;84.80
12622;DHT22;6376;48.182;-1.644;2024-03-07T09:21:31;11.60;84.40
12622;DHT22;6376;48.182;-1.644;2024-03-07T09:23:56;11.70;84.10
12622;DHT22;6376;48.182;-1.644;2024-03-07T09:26:22;11.80;83.70
12622;DHT22;6376;48.182;-1.644;2024-03-07T09:28:48;11.90;83.20
12622;DHT22;6376;48.182;-1.644;2024-03-07T09:31:16;12.00;83.00
12622;DHT22;6376;48.182;-1.644;2024-03-07T09:33:42;12.00;82.70
12622;DHT22;6376;48.182;-1.644;2024-03-07T09:36:08;12.10;82.70
12622;DHT22;6376;48.182;-1.644;2024-03-07T09:38:34;12.20;82.40
12622;DHT22;6376;48.182;-1.644;2024-03-07T09:40:59;12.20;82.00
12622;DHT22;6376;48.182;-1.644;2024-03-07T09:43:26;12.30;81.80
12622;DHT22;6376;48.182;-1.644;2024-03-07T09:45:53;12.40;81.40
12622;DHT22;6376;48.182;-1.644;2024-03-07T09:48:21;12.50;81.10
12622;DHT22;6376;48.182;-1.644;2024-03-07T09:50:50;12.50;80.80
12622;DHT22;6376;48.182;-1.644;2024-03-07T09:53:18;12.60;80.70
12622;DHT22;6376;48.182;-1.644;2024-03-07T09:55:44;12.70;80.40
12622;DHT22;6376;48.182;-1.644;2024-03-07T09:58:11;12.70;80.00
12622;DHT22;6376;48.182;-1.644;2024-03-07T10:00:40;12.80;79.80
12622;DHT22;6376;48.182;-1.644;2024-03-07T10:03:08;12.90;79.80
12622;DHT22;6376;48.182;-1.644;2024-03-07T10:05:34;12.90;79.50
12622;DHT22;6376;48.182;-1.644;2024-03-07T10:08:00;12.90;79.20
12622;DHT22;6376;48.182;-1.644;2024-03-07T10:10:26;13.00;78.80
12622;DHT22;6376;48.182;-1.644;2024-03-07T10:12:52;13.10;78.80
12622;DHT22;6376;48.182;-1.644;2024-03-07T10:15:19;13.10;78.50
12622;DHT22;6376;48.182;-1.644;2024-03-07T10:17:45;13.20;78.30
12622;DHT22;6376;48.182;-1.644;2024-03-07T10:20:18;13.20;78.30
12622;DHT22;6376;48.182;-1.644;2024-03-07T10:22:45;13.30;78.10
12622;DHT22;6376;48.182;-1.644;2024-03-07T10:25:11;13.40;78.00
12622;DHT22;6376;48.182;-1.644;2024-03-07T10:27:37;13.40;77.60
12622;DHT22;6376;48.182;-1.644;2024-03-07T10:30:04;13.40;77.40
12622;DHT22;6376;48.182;-1.644;2024-03-07T10:32:33;13.40;77.30
12622;DHT22;6376;48.182;-1.644;2024-03-07T10:34:58;13.50;77.40
12622;DHT22;6376;48.182;-1.644;2024-03-07T10:37:24;13.50;77.40
12622;DHT22;6376;48.182;-1.644;2024-03-07T10:39:51;13.50;77.10
12622;DHT22;6376;48.182;-1.644;2024-03-07T10:42:18;13.50;77.20
12622;DHT22;6376;48.182;-1.644;2024-03-07T10:44:48;13.40;77.40
12622;DHT22;6376;48.182;-1.644;2024-03-07T10:47:18;13.40;77.40
12622;DHT22;6376;48.182;-1.644;2024-03-07T10:52:49;13.40;77.20
12622;DHT22;6376;48.182;-1.644;2024-03-07T10:59:10;13.50;76.80
12622;DHT22;6376;48.182;-1.644;2024-03-07T11:01:13;13.50;76.80
12622;DHT22;6376;48.182;-1.644;2024-03-07T11:03:40;13.50;76.80
12622;DHT22;6376;48.182;-1.644;2024-03-07T11:06:07;13.50;76.60
12622;DHT22;6376;48.182;-1.644;2024-03-07T11:08:37;13.50;76.50
12622;DHT22;6376;48.182;-1.644;2024-03-07T11:11:03;13.50;76.60
12622;DHT22;6376;48.182;-1.644;2024-03-07T11:13:30;13.50;76.30
12622;DHT22;6376;48.182;-1.644;2024-03-07T11:15:58;13.50;76.70
12622;DHT22;6376;48.182;-1.644;2024-03-07T11:18:25;13.40;76.70
12622;DHT22;6376;48.182;-1.644;2024-03-07T11:20:52;13.40;76.50
12622;DHT22;6376;48.182;-1.644;2024-03-07T11:23:30;13.50;76.70
12622;DHT22;6376;48.182;-1.644;2024-03-07T11:26:05;13.60;76.40
12622;DHT22;6376;48.182;-1.644;2024-03-07T11:28:39;13.60;76.00
12622;DHT22;6376;48.182;-1.644;2024-03-07T11:31:14;13.70;75.50
12622;DHT22;6376;48.182;-1.644;2024-03-07T11:33:41;13.70;75.90
12622;DHT22;6376;48.182;-1.644;2024-03-07T11:36:10;13.80;75.50
12622;DHT22;6376;48.182;-1.644;2024-03-07T11:38:48;13.90;75.10
12622;DHT22;6376;48.182;-1.644;2024-03-07T11:41:19;13.90;75.40
12622;DHT22;6376;48.182;-1.644;2024-03-07T11:43:45;13.90;75.20
12622;DHT22;6376;48.182;-1.644;2024-03-07T11:46:11;14.00;74.70
12622;DHT22;6376;48.182;-1.644;2024-03-07T11:48:42;14.00;74.20
12622;DHT22;6376;48.182;-1.644;2024-03-07T11:51:12;13.90;74.20
12622;DHT22;6376;48.182;-1.644;2024-03-07T11:53:41;13.80;75.00
12622;DHT22;6376;48.182;-1.644;2024-03-07T11:56:07;13.70;75.20
12622;DHT22;6376;48.182;-1.644;2024-03-07T11:58:37;13.60;75.60
12622;DHT22;6376;48.182;-1.644;2024-03-07T12:01:06;13.60;75.50
12622;DHT22;6376;48.182;-1.644;2024-03-07T12:03:36;13.50;76.70
12622;DHT22;6376;48.182;-1.644;2024-03-07T12:06:03;13.40;76.80
12622;DHT22;6376;48.182;-1.644;2024-03-07T12:08:29;13.40;76.50
12622;DHT22;6376;48.182;-1.644;2024-03-07T12:10:55;13.30;76.60
12622;DHT22;6376;48.182;-1.644;2024-03-07T12:13:22;13.30;76.20
12622;DHT22;6376;48.182;-1.644;2024-03-07T12:15:50;13.30;76.50
12622;DHT22;6376;48.182;-1.644;2024-03-07T12:18:19;13.20;76.60
12622;DHT22;6376;48.182;-1.644;2024-03-07T12:20:46;13.20;77.60
12622;DHT22;6376;48.182;-1.644;2024-03-07T12:23:22;13.20;76.60
12622;DHT22;6376;48.182;-1.644;2024-03-07T12:25:59;13.10;76.10
12622;DHT22;6376;48.182;-1.644;2024-03-07T12:28:26;13.10;76.50
12622;DHT22;6376;48.182;-1.644;2024-03-07T12:30:54;13.10;77.20
12622;DHT22;6376;48.182;-1.644;2024-03-07T12:33:22;13.10;76.90
12622;DHT22;6376;48.182;-1.644;2024-03-07T12:35:52;13.10;76.30
12622;DHT22;6376;48.182;-1.644;2024-03-07T12:38:19;13.10;76.50
12622;DHT22;6376;48.182;-1.644;2024-03-07T12:40:45;13.00;76.10
12622;DHT22;6376;48.182;-1.644;2024-03-07T12:43:21;13.00;76.40
12622;DHT22;6376;48.182;-1.644;2024-03-07T12:45:50;13.00;76.40
12622;DHT22;6376;48.182;-1.644;2024-03-07T12:48:18;13.00;76.90
12622;DHT22;6376;48.182;-1.644;2024-03-07T12:50:48;13.00;77.50
12622;DHT22;6376;48.182;-1.644;2024-03-07T12:53:22;13.00;76.40
12622;DHT22;6376;48.182;-1.644;2024-03-07T12:55:48;12.90;76.60
12622;DHT22;6376;48.182;-1.644;2024-03-07T12:58:15;12.90;76.50
12622;DHT22;6376;48.182;-1.644;2024-03-07T13:00:41;12.90;76.30
12622;DHT22;6376;48.182;-1.644;2024-03-07T13:03:07;12.90;76.40
12622;DHT22;6376;48.182;-1.644;2024-03-07T13:05:37;12.90;76.60
12622;DHT22;6376;48.182;-1.644;2024-03-07T13:08:06;12.90;76.90
12622;DHT22;6376;48.182;-1.644;2024-03-07T13:10:37;12.90;77.40
12622;DHT22;6376;48.182;-1.644;2024-03-07T13:13:03;12.90;77.00
12622;DHT22;6376;48.182;-1.644;2024-03-07T13:15:33;12.90;76.90
12622;DHT22;6376;48.182;-1.644;2024-03-07T13:17:58;13.70;76.90
12622;DHT22;6376;48.182;-1.644;2024-03-07T13:20:25;12.90;76.30
12622;DHT22;6376;48.182;-1.644;2024-03-07T13:22:52;12.90;76.30
12622;DHT22;6376;48.182;-1.644;2024-03-07T13:25:25;12.90;76.60
12622;DHT22;6376;48.182;-1.644;2024-03-07T13:28:14;12.80;76.70
12622;DHT22;6376;48.182;-1.644;2024-03-07T13:30:45;12.80;76.10
12622;DHT22;6376;48.182;-1.644;2024-03-07T13:33:13;12.80;76.80
12622;DHT22;6376;48.182;-1.644;2024-03-07T13:35:40;12.80;76.40
12622;DHT22;6376;48.182;-1.644;2024-03-07T13:38:08;12.80;76.50
12622;DHT22;6376;48.182;-1.644;2024-03-07T13:40:35;12.80;76.20
12622;DHT22;6376;48.182;-1.644;2024-03-07T13:43:04;12.80;76.40
12622;DHT22;6376;48.182;-1.644;2024-03-07T13:45:32;12.80;76.30
12622;DHT22;6376;48.182;-1.644;2024-03-07T13:48:02;12.80;76.10
12622;DHT22;6376;48.182;-1.644;2024-03-07T13:50:31;12.80;75.00
12622;DHT22;6376;48.182;-1.644;2024-03-07T13:52:58;12.80;75.80
12622;DHT22;6376;48.182;-1.644;2024-03-07T13:56:06;12.80;76.00
12622;DHT22;6376;48.182;-1.644;2024-03-07T14:07:33;12.80;75.70
12622;DHT22;6376;48.182;-1.644;2024-03-07T14:15:57;12.80;76.10
12622;DHT22;6376;48.182;-1.644;2024-03-07T14:32:32;12.80;76.00
12622;DHT22;6376;48.182;-1.644;2024-03-07T14:35:07;12.80;75.90
12622;DHT22;6376;48.182;-1.644;2024-03-07T14:40:12;12.80;76.10
12622;DHT22;6376;48.182;-1.644;2024-03-07T14:42:49;12.80;76.30
12622;DHT22;6376;48.182;-1.644;2024-03-07T14:45:25;12.80;76.70
12622;DHT22;6376;48.182;-1.644;2024-03-07T14:47:53;12.80;76.40
12622;DHT22;6376;48.182;-1.644;2024-03-07T14:50:20;12.90;76.90
12622;DHT22;6376;48.182;-1.644;2024-03-07T14:52:47;12.90;76.90
12622;DHT22;6376;48.182;-1.644;2024-03-07T14:55:13;12.80;76.50
12622;DHT22;6376;48.182;-1.644;2024-03-07T14:57:39;12.80;76.30
12622;DHT22;6376;48.182;-1.644;2024-03-07T15:00:09;12.80;76.40
12622;DHT22;6376;48.182;-1.644;2024-03-07T15:02:48;12.80;76.40
12622;DHT22;6376;48.182;-1.644;2024-03-07T15:05:16;12.80;76.00
12622;DHT22;6376;48.182;-1.644;2024-03-07T15:07:44;12.80;76.10
12622;DHT22;6376;48.182;-1.644;2024-03-07T15:10:23;12.80;77.00
12622;DHT22;6376;48.182;-1.644;2024-03-07T15:12:49;12.90;77.20
12622;DHT22;6376;48.182;-1.644;2024-03-07T15:15:16;12.90;76.90
12622;DHT22;6376;48.182;-1.644;2024-03-07T15:17:45;12.90;76.50
12622;DHT22;6376;48.182;-1.644;2024-03-07T15:20:12;12.90;76.10
12622;DHT22;6376;48.182;-1.644;2024-03-07T15:22:53;12.90;76.50
12622;DHT22;6376;48.182;-1.644;2024-03-07T15:25:23;12.90;76.30
12622;DHT22;6376;48.182;-1.644;2024-03-07T15:27:50;12.90;76.70
12622;DHT22;6376;48.182;-1.644;2024-03-07T15:30:17;12.90;75.70
12622;DHT22;6376;48.182;-1.644;2024-03-07T15:32:44;12.90;76.70
12622;DHT22;6376;48.182;-1.644;2024-03-07T15:35:10;12.90;77.10
12622;DHT22;6376;48.182;-1.644;2024-03-07T15:37:44;12.90;77.30
12622;DHT22;6376;48.182;-1.644;2024-03-07T15:40:10;12.90;77.90
12622;DHT22;6376;48.182;-1.644;2024-03-07T15:42:47;12.90;77.70
12622;DHT22;6376;48.182;-1.644;2024-03-07T15:45:22;12.90;77.50
12622;DHT22;6376;48.182;-1.644;2024-03-07T15:47:51;12.90;77.70
12622;DHT22;6376;48.182;-1.644;2024-03-07T15:50:18;12.90;77.10
12622;DHT22;6376;48.182;-1.644;2024-03-07T15:52:48;12.90;77.50
12622;DHT22;6376;48.182;-1.644;2024-03-07T15:55:17;12.90;77.90
12622;DHT22;6376;48.182;-1.644;2024-03-07T15:57:47;12.90;77.40
12622;DHT22;6376;48.182;-1.644;2024-03-07T16:00:17;12.90;77.20
12622;DHT22;6376;48.182;-1.644;2024-03-07T16:05:28;12.90;77.60
12622;DHT22;6376;48.182;-1.644;2024-03-07T16:07:56;12.90;77.50
12622;DHT22;6376;48.182;-1.644;2024-03-07T16:10:28;12.90;76.90
12622;DHT22;6376;48.182;-1.644;2024-03-07T16:12:56;12.90;77.10